Time;durP1;ratioP1;P1;durP2;ratioP2;P2;SDS_P1;SDS_P2;PMS_P1;PMS_P2;Temp;Humidity;BMP_temperature;BMP_pressure;BME280_temperature;BME280_humidity;BME280_pressure;Samples;Min_cycle;Max_cycle;Signal;HPM_P1;HPM_P2
2022/07/19 00:01:54;;;;;;;16.38;2.00;;;42.40;30.90;;;;;;5012898;28;20526;-69
2022/07/19 00:04:20;;;;;;;9.18;1.83;;;42.20;31.10;;;;;;5012889;28;20449;-69
2022/07/19 00:06:46;;;;;;;13.13;1.80;;;42.20;31.40;;;;;;5015241;28;20380;-67
2022/07/19 00:09:13;;;;;;;12.63;1.95;;;41.90;31.40;;;;;;5016613;28;20045;-68
2022/07/19 00:11:39;;;;;;;11.10;2.50;;;41.80;31.80;;;;;;5027815;28;20453;-70
2022/07/19 00:14:05;;;;;;;13.98;2.45;;;41.60;31.70;;;;;;5018813;28;20049;-72
2022/07/19 00:16:32;;;;;;;9.38;1.80;;;41.50;32.10;;;;;;5012809;28;20114;-70
2022/07/19 00:18:58;;;;;;;9.23;1.95;;;41.40;31.80;;;;;;5024101;28;20707;-68
2022/07/19 00:21:25;;;;;;;15.10;2.03;;;41.30;31.80;;;;;;5028068;28;20048;-67
2022/07/19 00:23:51;;;;;;;16.48;2.05;;;41.40;32.10;;;;;;5025989;28;20100;-70
2022/07/19 00:26:17;;;;;;;12.20;2.25;;;41.20;31.20;;;;;;5013072;28;20043;-70
2022/07/19 00:28:44;;;;;;;18.02;2.13;;;41.10;31.30;;;;;;5012703;28;20050;-69
2022/07/19 00:31:10;;;;;;;12.77;2.28;;;41.10;31.50;;;;;;5013399;28;20591;-71
2022/07/19 00:33:36;;;;;;;7.18;1.70;;;41.00;31.50;;;;;;5030627;28;20105;-68
2022/07/19 00:36:03;;;;;;;18.85;2.28;;;41.00;31.40;;;;;;5014840;28;20064;-68
2022/07/19 00:38:29;;;;;;;11.45;1.88;;;41.00;31.40;;;;;;5008377;28;20146;-71
2022/07/19 00:40:56;;;;;;;14.35;2.40;;;41.00;31.10;;;;;;5016732;28;20093;-68
2022/07/19 00:43:22;;;;;;;16.08;2.72;;;41.10;31.30;;;;;;5028118;28;20169;-67
2022/07/19 00:45:48;;;;;;;14.23;1.77;;;41.10;31.10;;;;;;5007960;28;20049;-69
2022/07/19 00:48:15;;;;;;;12.60;2.05;;;41.00;31.00;;;;;;5009970;28;20119;-68
2022/07/19 00:50:41;;;;;;;13.90;2.92;;;40.90;31.00;;;;;;5014380;28;20600;-68
2022/07/19 00:53:08;;;;;;;29.40;3.95;;;40.90;31.50;;;;;;5012348;28;20049;-69
2022/07/19 00:55:35;;;;;;;25.50;3.15;;;40.70;32.70;;;;;;5010224;28;20073;-74
2022/07/19 00:58:03;;;;;;;23.33;3.53;;;40.70;33.30;;;;;;5018797;28;20425;-70
2022/07/19 01:00:32;;;;;;;18.63;3.10;;;40.70;33.70;;;;;;5020481;28;20475;-68
2022/07/19 01:02:59;;;;;;;21.08;2.78;;;40.60;34.10;;;;;;5030701;28;20543;-69
2022/07/19 01:05:26;;;;;;;26.55;2.63;;;40.60;33.70;;;;;;5023269;28;20136;-70
2022/07/19 01:07:53;;;;;;;13.02;2.60;;;40.60;33.60;;;;;;5012559;28;20054;-72
2022/07/19 01:10:19;;;;;;;22.40;2.38;;;40.60;34.00;;;;;;5045080;28;20053;-70
2022/07/19 01:12:46;;;;;;;19.83;2.13;;;40.60;34.00;;;;;;5022706;28;20115;-69
2022/07/19 01:15:19;;;;;;;10.25;2.13;;;40.60;33.90;;;;;;5017621;28;20529;-70
2022/07/19 01:17:46;;;;;;;18.20;2.33;;;40.60;33.70;;;;;;5030441;28;20542;-71
2022/07/19 01:20:13;;;;;;;13.90;2.58;;;40.60;33.50;;;;;;5027643;28;20097;-70
2022/07/19 01:22:41;;;;;;;18.48;2.17;;;40.60;33.40;;;;;;5032155;28;20067;-70
2022/07/19 01:25:08;;;;;;;18.77;2.58;;;40.60;33.40;;;;;;5016696;28;20140;-70
2022/07/19 01:27:42;;;;;;;14.48;2.30;;;40.60;33.70;;;;;;5029712;28;20524;-70
2022/07/19 01:30:16;;;;;;;23.15;2.80;;;40.70;33.50;;;;;;5016641;28;20046;-72
2022/07/19 01:32:43;;;;;;;16.40;3.03;;;40.60;33.80;;;;;;5014851;28;20045;-69
2022/07/19 01:35:09;;;;;;;11.20;2.58;;;40.60;33.70;;;;;;5031312;28;20062;-68
2022/07/19 01:37:36;;;;;;;19.65;2.70;;;40.60;34.10;;;;;;5030789;28;20049;-70
2022/07/19 01:40:07;;;;;;;31.55;3.03;;;40.40;34.30;;;;;;5016259;28;20049;-68
2022/07/19 01:42:34;;;;;;;22.92;3.15;;;40.40;34.50;;;;;;5030635;28;20050;-70
2022/07/19 01:45:01;;;;;;;20.73;3.05;;;40.40;34.80;;;;;;5016816;28;20056;-68
2022/07/19 01:47:28;;;;;;;23.80;3.28;;;40.30;35.30;;;;;;5034945;28;20522;-68
2022/07/19 01:49:54;;;;;;;22.52;3.05;;;40.20;35.10;;;;;;5021092;28;20060;-65
2022/07/19 01:52:20;;;;;;;18.15;2.88;;;40.10;35.70;;;;;;5019748;28;20156;-69
2022/07/19 01:54:47;;;;;;;14.32;3.00;;;40.20;34.90;;;;;;5031045;28;20103;-69
2022/07/19 01:57:13;;;;;;;25.30;3.15;;;40.10;35.20;;;;;;5013887;28;20572;-68
2022/07/19 01:59:40;;;;;;;27.45;3.35;;;40.00;34.90;;;;;;5013171;28;20069;-69
2022/07/19 02:02:07;;;;;;;20.02;3.10;;;40.00;35.10;;;;;;5014105;28;20458;-68
2022/07/19 02:04:33;;;;;;;26.60;3.00;;;40.00;35.30;;;;;;5017095;28;20479;-68
2022/07/19 02:07:00;;;;;;;22.27;3.10;;;39.90;35.40;;;;;;5030574;28;20067;-70
2022/07/19 02:09:26;;;;;;;18.38;2.95;;;39.80;35.40;;;;;;5014807;28;20066;-69
2022/07/19 02:11:53;;;;;;;24.80;3.13;;;39.70;35.60;;;;;;5019605;28;20156;-68
2022/07/19 02:14:19;;;;;;;14.25;2.60;;;39.60;36.00;;;;;;5020648;28;20058;-68
2022/07/19 02:16:45;;;;;;;17.88;2.53;;;39.50;35.90;;;;;;5011291;28;20107;-70
2022/07/19 02:19:12;;;;;;;17.42;3.15;;;39.50;36.10;;;;;;5015194;28;20820;-68
2022/07/19 02:21:39;;;;;;;18.85;3.00;;;39.30;36.30;;;;;;5022558;28;20249;-67
2022/07/19 02:24:07;;;;;;;17.90;2.80;;;39.30;36.40;;;;;;5013230;28;20431;-68
2022/07/19 02:26:35;;;;;;;18.13;3.35;;;39.20;36.80;;;;;;5013020;28;20059;-68
2022/07/19 02:29:02;;;;;;;23.58;3.58;;;39.10;37.20;;;;;;5013830;28;20516;-68
2022/07/19 02:31:28;;;;;;;18.30;2.88;;;39.10;37.70;;;;;;5012096;28;20064;-69
2022/07/19 02:33:55;;;;;;;23.98;3.03;;;38.90;37.90;;;;;;5020505;28;20457;-70
2022/07/19 02:36:21;;;;;;;14.63;2.90;;;38.90;38.10;;;;;;5016322;28;20099;-70
2022/07/19 02:38:47;;;;;;;23.75;3.88;;;38.80;38.40;;;;;;5014001;28;20133;-68
2022/07/19 02:41:14;;;;;;;18.88;3.55;;;38.80;38.80;;;;;;5028923;28;20053;-68
2022/07/19 02:43:40;;;;;;;17.02;2.95;;;38.70;39.00;;;;;;5005786;28;20168;-69
2022/07/19 02:46:07;;;;;;;23.52;3.15;;;38.70;39.60;;;;;;5017280;28;20061;-69
2022/07/19 02:48:33;;;;;;;18.75;2.42;;;38.60;39.50;;;;;;5018349;28;20148;-70
2022/07/19 02:51:00;;;;;;;26.92;2.53;;;38.60;39.40;;;;;;5020150;28;20066;-67
2022/07/19 02:53:41;;;;;;;26.27;3.55;;;38.50;39.30;;;;;;5019224;28;20137;-67
2022/07/19 02:56:27;;;;;;;14.18;2.80;;;38.50;39.40;;;;;;5017075;28;20066;-75
2022/07/19 02:58:53;;;;;;;16.20;2.55;;;38.40;39.70;;;;;;5043493;28;20076;-71
2022/07/19 03:01:20;;;;;;;15.45;2.67;;;38.30;39.90;;;;;;5019096;28;20081;-72
2022/07/19 03:03:50;;;;;;;13.52;2.58;;;38.20;40.00;;;;;;5015180;28;20061;-72
2022/07/19 03:06:18;;;;;;;14.23;3.40;;;38.20;40.20;;;;;;5015112;28;20146;-70
2022/07/19 03:08:46;;;;;;;12.75;3.35;;;38.10;40.60;;;;;;5027182;28;20105;-67
2022/07/19 03:11:12;;;;;;;13.02;4.00;;;38.00;41.10;;;;;;5012914;28;20068;-69
2022/07/19 03:13:39;;;;;;;19.20;4.03;;;37.90;41.30;;;;;;5012867;28;20067;-70
2022/07/19 03:16:06;;;;;;;14.23;3.80;;;37.90;41.40;;;;;;5011300;28;20520;-66
2022/07/19 03:18:32;;;;;;;13.48;3.80;;;37.80;41.50;;;;;;5043752;28;20089;-68
2022/07/19 03:20:59;;;;;;;16.40;3.85;;;37.70;41.90;;;;;;5012777;28;20466;-68
2022/07/19 03:23:28;;;;;;;21.98;4.35;;;37.60;42.20;;;;;;5010824;28;20096;-67
2022/07/19 03:25:54;;;;;;;17.80;3.78;;;37.60;42.50;;;;;;5025264;28;20649;-68
2022/07/19 03:28:20;;;;;;;11.38;3.58;;;37.50;42.90;;;;;;5015449;28;20094;-70
2022/07/19 03:30:47;;;;;;;18.58;3.92;;;37.40;43.30;;;;;;5018159;28;20075;-70
2022/07/19 03:33:15;;;;;;;18.50;3.88;;;37.40;43.80;;;;;;5025352;28;20153;-68
2022/07/19 03:35:46;;;;;;;17.48;3.80;;;37.30;44.10;;;;;;5013394;28;20092;-69
2022/07/19 03:38:15;;;;;;;22.40;3.20;;;37.20;44.30;;;;;;5028286;28;20616;-69
2022/07/19 03:40:42;;;;;;;14.35;3.80;;;37.20;44.30;;;;;;5019308;28;20176;-71
2022/07/19 03:43:08;;;;;;;19.05;3.67;;;37.20;44.40;;;;;;5015777;28;20065;-70
2022/07/19 03:45:34;;;;;;;24.38;4.00;;;37.00;44.20;;;;;;5025382;28;20142;-70
2022/07/19 03:48:01;;;;;;;20.17;4.10;;;37.00;44.40;;;;;;5018221;28;20068;-67
2022/07/19 03:50:28;;;;;;;23.00;4.85;;;36.90;44.40;;;;;;5026016;28;20554;-66
2022/07/19 03:52:55;;;;;;;25.75;5.10;;;36.90;44.40;;;;;;5016346;28;20549;-68
2022/07/19 03:55:21;;;;;;;35.10;4.65;;;36.90;44.10;;;;;;5025383;28;20083;-68
2022/07/19 03:57:48;;;;;;;27.08;4.20;;;36.90;44.00;;;;;;5028341;28;20075;-69
2022/07/19 04:00:14;;;;;;;26.95;3.65;;;36.80;44.00;;;;;;5014395;28;20073;-69
2022/07/19 04:02:40;;;;;;;20.38;3.33;;;36.80;44.30;;;;;;5013306;28;20171;-72
2022/07/19 04:05:07;;;;;;;23.17;3.92;;;36.70;44.30;;;;;;5023275;28;20079;-66
2022/07/19 04:07:34;;;;;;;22.60;3.60;;;36.70;44.50;;;;;;5010697;28;20433;-71
2022/07/19 04:10:01;;;;;;;22.58;3.47;;;36.70;44.50;;;;;;5013133;28;20083;-72
2022/07/19 04:12:27;;;;;;;62.50;5.57;;;36.60;44.50;;;;;;5013383;28;20447;-72
2022/07/19 04:14:54;;;;;;;28.02;4.25;;;36.60;44.50;;;;;;5012727;28;20077;-71
2022/07/19 04:17:21;;;;;;;28.73;3.33;;;36.60;44.30;;;;;;5042893;28;20070;-69
2022/07/19 04:19:47;;;;;;;22.63;3.38;;;36.60;44.20;;;;;;5012593;28;20119;-67
2022/07/19 04:22:13;;;;;;;25.35;3.65;;;36.60;43.70;;;;;;5026870;28;20080;-67
2022/07/19 04:24:40;;;;;;;29.92;3.72;;;36.50;43.70;;;;;;5027021;28;20070;-69
2022/07/19 04:27:06;;;;;;;29.35;3.55;;;36.50;43.70;;;;;;5011001;28;20223;-69
2022/07/19 04:29:33;;;;;;;22.40;3.20;;;36.50;43.80;;;;;;5019264;28;20072;-68
2022/07/19 04:31:59;;;;;;;19.95;3.33;;;36.40;43.70;;;;;;5017598;28;20121;-69
2022/07/19 04:34:25;;;;;;;19.30;3.08;;;36.40;43.70;;;;;;5017657;28;20074;-69
2022/07/19 04:36:52;;;;;;;19.80;3.20;;;36.40;43.70;;;;;;5015761;28;20093;-66
2022/07/19 04:39:18;;;;;;;13.93;2.97;;;36.40;43.70;;;;;;5017646;28;20161;-68
2022/07/19 04:41:44;;;;;;;9.82;2.90;;;36.30;44.20;;;;;;5028553;28;20066;-68
2022/07/19 04:44:11;;;;;;;11.77;2.80;;;36.30;43.70;;;;;;5021946;28;20171;-71
2022/07/19 04:46:37;;;;;;;12.73;2.70;;;36.30;43.70;;;;;;5012104;28;20535;-67
2022/07/19 04:49:04;;;;;;;13.63;2.80;;;36.30;43.70;;;;;;5015985;28;20074;-71
2022/07/19 04:51:30;;;;;;;16.23;3.22;;;36.30;43.80;;;;;;5047268;28;20451;-69
2022/07/19 04:53:57;;;;;;;12.48;2.47;;;36.30;43.80;;;;;;5016821;28;20537;-71
2022/07/19 04:56:24;;;;;;;18.55;3.20;;;36.20;44.40;;;;;;5015519;28;20493;-68
2022/07/19 04:58:50;;;;;;;13.05;2.65;;;36.20;44.40;;;;;;5030139;28;20089;-65
2022/07/19 05:01:17;;;;;;;12.18;2.88;;;36.20;44.70;;;;;;5012763;28;20079;-67
2022/07/19 05:03:43;;;;;;;13.82;2.72;;;36.00;44.30;;;;;;5013959;28;20091;-69
2022/07/19 05:06:10;;;;;;;11.05;2.50;;;36.00;44.80;;;;;;5001994;28;20182;-70
2022/07/19 05:08:36;;;;;;;15.05;2.20;;;36.10;44.20;;;;;;5014930;28;20078;-73
2022/07/19 05:11:03;;;;;;;13.23;2.60;;;36.10;44.30;;;;;;5016279;28;20076;-68
2022/07/19 05:13:29;;;;;;;12.32;2.70;;;36.10;44.50;;;;;;5038421;28;20074;-69
2022/07/19 05:15:56;;;;;;;10.90;2.42;;;36.00;44.50;;;;;;5012246;28;20172;-68
2022/07/19 05:18:22;;;;;;;11.25;2.65;;;35.90;44.70;;;;;;5014910;28;20141;-68
2022/07/19 05:20:49;;;;;;;12.45;2.83;;;35.80;45.10;;;;;;5030191;28;20166;-67
2022/07/19 05:23:15;;;;;;;14.88;2.95;;;35.80;45.30;;;;;;5014816;28;20121;-68
2022/07/19 05:25:41;;;;;;;15.82;2.90;;;35.70;45.30;;;;;;5015636;28;20101;-68
2022/07/19 05:28:08;;;;;;;23.58;3.90;;;35.70;45.30;;;;;;5044947;28;20077;-68
2022/07/19 05:30:35;;;;;;;21.42;3.75;;;35.70;45.40;;;;;;5032414;28;20508;-68
2022/07/19 05:33:01;;;;;;;25.05;4.05;;;35.60;45.50;;;;;;5016105;28;20089;-68
2022/07/19 05:35:27;;;;;;;15.15;3.67;;;35.60;45.70;;;;;;5017549;28;20100;-69
2022/07/19 05:37:54;;;;;;;23.20;4.07;;;35.60;46.60;;;;;;5015149;28;20105;-68
2022/07/19 05:40:20;;;;;;;18.58;3.55;;;35.60;46.40;;;;;;5018590;28;20067;-70
2022/07/19 05:42:47;;;;;;;20.75;3.20;;;35.60;46.00;;;;;;5016623;28;20118;-70
2022/07/19 05:45:13;;;;;;;18.13;3.78;;;35.60;46.70;;;;;;5015112;28;20127;-70
2022/07/19 05:47:39;;;;;;;18.75;3.20;;;35.60;47.00;;;;;;5046351;28;20122;-68
2022/07/19 05:50:06;;;;;;;18.73;3.53;;;35.60;46.70;;;;;;5015842;28;20095;-68
2022/07/19 05:52:32;;;;;;;16.35;3.50;;;35.50;46.20;;;;;;5015232;28;20105;-70
2022/07/19 05:54:59;;;;;;;24.75;3.80;;;35.50;46.00;;;;;;5017214;28;20180;-68
2022/07/19 05:57:25;;;;;;;22.90;3.70;;;35.40;46.00;;;;;;5014150;28;20443;-69
2022/07/19 05:59:53;;;;;;;26.83;3.65;;;35.40;46.10;;;;;;5013899;28;20141;-69
2022/07/19 06:02:20;;;;;;;29.35;3.90;;;35.40;46.10;;;;;;5030722;28;20443;-73
2022/07/19 06:04:46;;;;;;;24.75;3.72;;;35.40;46.30;;;;;;5014890;28;20069;-68
2022/07/19 06:07:13;;;;;;;21.33;3.60;;;35.40;46.30;;;;;;5013110;28;20082;-67
2022/07/19 06:09:39;;;;;;;23.63;3.17;;;35.40;47.00;;;;;;5013538;28;20131;-67
2022/07/19 06:12:06;;;;;;;13.32;2.63;;;35.40;47.40;;;;;;5020794;28;20169;-70
2022/07/19 06:14:32;;;;;;;18.08;2.95;;;35.40;47.10;;;;;;5019223;28;20123;-68
2022/07/19 06:16:59;;;;;;;15.75;3.17;;;35.30;47.20;;;;;;5018925;28;20081;-67
2022/07/19 06:19:26;;;;;;;13.65;2.42;;;35.40;48.50;;;;;;5014603;28;20410;-69
2022/07/19 06:21:54;;;;;;;21.88;2.67;;;35.30;47.90;;;;;;5015400;28;20151;-66
2022/07/19 06:24:21;;;;;;;21.55;3.30;;;35.30;48.40;;;;;;5015717;28;20160;-67
2022/07/19 06:26:47;;;;;;;12.55;2.50;;;35.20;47.60;;;;;;5019346;28;20093;-66
2022/07/19 06:29:13;;;;;;;28.98;2.70;;;35.20;47.60;;;;;;5014550;28;20200;-67
2022/07/19 06:31:40;;;;;;;19.45;2.72;;;35.20;48.50;;;;;;5018308;28;20124;-67
2022/07/19 06:34:06;;;;;;;19.48;2.55;;;35.20;48.00;;;;;;5028928;28;20096;-67
2022/07/19 06:36:32;;;;;;;16.23;3.78;;;35.20;48.50;;;;;;5014261;28;20099;-67
2022/07/19 06:38:59;;;;;;;16.83;4.57;;;35.20;48.80;;;;;;5014094;28;20083;-67
2022/07/19 06:41:25;;;;;;;24.45;4.80;;;35.10;48.60;;;;;;5028974;28;20077;-67
2022/07/19 06:43:52;;;;;;;26.30;5.30;;;35.10;49.30;;;;;;5014738;28;20163;-67
2022/07/19 06:46:18;;;;;;;14.20;3.63;;;35.10;49.80;;;;;;5010029;28;20093;-67
2022/07/19 06:48:44;;;;;;;15.20;3.38;;;35.10;50.00;;;;;;5010582;28;20073;-66
2022/07/19 06:51:11;;;;;;;9.52;2.47;;;35.10;50.30;;;;;;5010538;28;20123;-66
2022/07/19 06:53:37;;;;;;;13.43;2.58;;;35.00;50.50;;;;;;5012477;28;20124;-71
2022/07/19 06:56:04;;;;;;;9.73;2.53;;;35.00;50.90;;;;;;5011736;28;20411;-65
2022/07/19 06:58:30;;;;;;;9.93;2.53;;;35.00;51.20;;;;;;5013501;28;20180;-68
2022/07/19 07:00:57;;;;;;;9.93;2.40;;;35.00;51.00;;;;;;5017150;28;20118;-66
2022/07/19 07:03:23;;;;;;;9.90;2.50;;;34.90;51.10;;;;;;5008636;28;20082;-65
2022/07/19 07:05:50;;;;;;;10.45;2.45;;;34.90;50.90;;;;;;5026370;28;20065;-65
2022/07/19 07:08:16;;;;;;;16.88;2.35;;;34.80;51.00;;;;;;5026868;28;20599;-65
2022/07/19 07:10:43;;;;;;;17.77;2.78;;;34.80;51.90;;;;;;5010609;28;20077;-69
2022/07/19 07:13:09;;;;;;;22.00;3.90;;;34.80;51.40;;;;;;5018480;28;20567;-69
2022/07/19 07:15:38;;;;;;;13.98;3.13;;;34.80;51.90;;;;;;5017044;28;20073;-70
2022/07/19 07:18:04;;;;;;;20.65;4.40;;;34.70;52.00;;;;;;5016303;28;20077;-71
2022/07/19 07:20:33;;;;;;;14.15;3.88;;;34.60;52.00;;;;;;5025609;28;20467;-68
2022/07/19 07:23:01;;;;;;;17.70;3.70;;;34.60;52.60;;;;;;5032370;28;20527;-67
2022/07/19 07:25:27;;;;;;;14.60;3.55;;;34.60;52.60;;;;;;5044305;28;20099;-66
2022/07/19 07:27:53;;;;;;;17.95;3.78;;;34.60;52.50;;;;;;5034572;28;20081;-69
2022/07/19 07:30:20;;;;;;;22.17;3.78;;;34.50;53.30;;;;;;5019084;28;20522;-66
2022/07/19 07:32:46;;;;;;;13.50;3.13;;;34.50;53.20;;;;;;5012773;28;20490;-66
2022/07/19 07:35:12;;;;;;;13.63;3.53;;;34.40;53.10;;;;;;5029392;28;20195;-66
2022/07/19 07:37:39;;;;;;;18.98;2.67;;;34.30;52.90;;;;;;5012887;28;21090;-67
2022/07/19 07:40:06;;;;;;;12.65;3.10;;;34.20;52.60;;;;;;5010792;28;20536;-67
2022/07/19 07:42:32;;;;;;;21.25;3.17;;;34.20;52.80;;;;;;5025953;28;20215;-67
2022/07/19 07:45:00;;;;;;;14.95;3.20;;;34.20;53.10;;;;;;5011808;28;20438;-66
2022/07/19 07:47:27;;;;;;;12.52;3.08;;;34.20;53.30;;;;;;5025129;28;20069;-69
2022/07/19 07:49:54;;;;;;;16.65;3.17;;;34.20;52.90;;;;;;5026458;28;20073;-66
2022/07/19 07:52:20;;;;;;;9.63;2.90;;;34.10;52.60;;;;;;5011909;28;20089;-66
2022/07/19 07:54:48;;;;;;;10.77;2.50;;;34.10;52.60;;;;;;5011586;28;20069;-66
2022/07/19 07:57:14;;;;;;;14.02;2.90;;;34.10;52.70;;;;;;5013654;28;20080;-65
2022/07/19 07:59:41;;;;;;;9.38;2.15;;;34.10;53.50;;;;;;5011298;28;20115;-65
2022/07/19 08:02:07;;;;;;;11.73;2.70;;;34.10;53.40;;;;;;5008996;28;20159;-66
2022/07/19 08:04:34;;;;;;;11.60;3.08;;;34.00;53.00;;;;;;5011630;28;20654;-66
2022/07/19 08:07:00;;;;;;;9.18;2.88;;;34.00;53.10;;;;;;5010681;28;20524;-71
2022/07/19 08:09:27;;;;;;;13.20;2.58;;;34.00;53.00;;;;;;5012211;28;20069;-67
2022/07/19 08:11:53;;;;;;;15.52;2.83;;;34.00;54.00;;;;;;5027626;28;20078;-66
2022/07/19 08:14:19;;;;;;;11.38;3.05;;;34.00;53.80;;;;;;5028454;28;20081;-65
2022/07/19 08:16:46;;;;;;;9.85;2.85;;;34.00;53.50;;;;;;5010600;28;20539;-66
2022/07/19 08:19:12;;;;;;;15.95;2.80;;;34.00;53.40;;;;;;5030542;28;20558;-68
2022/07/19 08:21:39;;;;;;;13.85;3.20;;;33.90;53.50;;;;;;5013908;28;20160;-73
2022/07/19 08:24:05;;;;;;;18.08;2.97;;;33.90;53.60;;;;;;5011032;28;20066;-66
2022/07/19 08:26:32;;;;;;;16.60;2.97;;;33.80;54.20;;;;;;5011422;28;20156;-68
2022/07/19 08:28:58;;;;;;;11.02;2.80;;;33.80;54.40;;;;;;5025239;28;20465;-71
2022/07/19 08:31:24;;;;;;;13.68;3.40;;;33.80;53.20;;;;;;5012747;28;20085;-71
2022/07/19 08:33:51;;;;;;;10.80;3.38;;;33.80;51.90;;;;;;5011971;28;20120;-71
2022/07/19 08:36:17;;;;;;;14.73;3.38;;;33.70;51.50;;;;;;5014232;28;20175;-70
2022/07/19 08:38:45;;;;;;;10.25;3.00;;;33.60;50.90;;;;;;5014393;28;20099;-71
2022/07/19 08:41:13;;;;;;;12.05;3.20;;;33.60;51.10;;;;;;5033958;28;20080;-69
2022/07/19 08:43:40;;;;;;;9.10;3.20;;;33.60;51.60;;;;;;5025753;28;20076;-72
2022/07/19 08:46:06;;;;;;;11.50;3.30;;;33.60;51.30;;;;;;5038155;28;20090;-71
2022/07/19 08:48:37;;;;;;;13.75;3.47;;;33.60;51.20;;;;;;5016368;28;20168;-72
2022/07/19 08:51:04;;;;;;;15.77;3.78;;;33.60;51.40;;;;;;5012052;28;20084;-71
2022/07/19 08:53:32;;;;;;;13.95;2.83;;;33.70;52.10;;;;;;5014520;28;20494;-69
2022/07/19 08:56:00;;;;;;;13.40;3.42;;;33.70;52.30;;;;;;5028415;28;20523;-69
2022/07/19 08:58:26;;;;;;;13.25;4.32;;;33.60;51.60;;;;;;5014386;28;20123;-67
2022/07/19 09:00:53;;;;;;;12.45;3.58;;;33.60;52.70;;;;;;5011247;28;20500;-67
2022/07/19 09:03:19;;;;;;;13.35;3.78;;;33.60;53.30;;;;;;5011629;28;20069;-68
2022/07/19 09:05:46;;;;;;;14.68;3.45;;;33.60;52.80;;;;;;5016858;28;20077;-66
2022/07/19 09:08:17;;;;;;;7.60;3.20;;;33.60;51.50;;;;;;5028499;28;20085;-65
2022/07/19 09:13:30;;;;;;;13.57;3.78;;;33.60;52.50;;;;;;5016257;28;20089;-66
2022/07/19 09:15:57;;;;;;;13.00;3.85;;;33.50;52.70;;;;;;5011943;28;20077;-66
2022/07/19 09:18:31;;;;;;;22.92;4.60;;;33.60;53.10;;;;;;5027784;28;20084;-70
2022/07/19 09:21:04;;;;;;;21.17;6.57;;;33.40;53.40;;;;;;5019581;28;20538;-66
2022/07/19 09:23:31;;;;;;;19.20;6.90;;;33.40;54.00;;;;;;5032015;28;20524;-64
2022/07/19 09:26:07;;;;;;;17.88;6.63;;;33.40;54.30;;;;;;5014947;28;20139;-67
2022/07/19 09:28:34;;;;;;;;;;;33.40;54.50;;;;;;5034083;28;20084;-69
2022/07/19 09:31:02;;;;;;;18.65;8.35;;;33.40;54.80;;;;;;5018342;28;19972;-67
2022/07/19 09:33:32;;;;;;;21.10;7.82;;;33.40;55.20;;;;;;5029173;28;20069;-67
2022/07/19 09:36:04;;;;;;;21.98;8.18;;;33.40;55.30;;;;;;5020983;28;20176;-67
2022/07/19 09:38:34;;;;;;;19.05;7.65;;;33.40;55.50;;;;;;5030882;28;20089;-66
2022/07/19 09:41:09;;;;;;;18.45;7.75;;;33.40;55.80;;;;;;5014411;28;20089;-67
2022/07/19 09:43:55;;;;;;;24.05;9.13;;;33.40;56.00;;;;;;5010718;28;20087;-67
2022/07/19 09:46:39;;;;;;;18.52;7.85;;;33.30;56.30;;;;;;5013074;28;20420;-66
2022/07/19 09:49:11;;;;;;;21.95;7.57;;;33.10;56.90;;;;;;5027998;28;20742;-67
2022/07/19 09:51:47;;;;;;;18.55;6.65;;;33.10;57.20;;;;;;5012601;28;20200;-69
2022/07/19 09:54:17;;;;;;;17.58;5.22;;;33.00;57.50;;;;;;5028417;28;20506;-67
2022/07/19 09:56:46;;;;;;;11.35;4.82;;;32.90;57.90;;;;;;5029647;28;20447;-71
2022/07/19 09:59:13;;;;;;;16.10;5.43;;;33.00;58.50;;;;;;5045841;28;20096;-68
2022/07/19 10:01:40;;;;;;;21.10;6.47;;;32.90;58.80;;;;;;5028921;28;20073;-67
2022/07/19 10:04:09;;;;;;;20.65;6.40;;;33.00;58.90;;;;;;5044181;28;20069;-67
2022/07/19 10:06:36;;;;;;;17.85;6.93;;;32.90;59.10;;;;;;5019506;28;20080;-66
2022/07/19 10:09:08;;;;;;;24.23;6.43;;;32.90;59.50;;;;;;5019747;28;20088;-66
2022/07/19 10:11:35;;;;;;;21.58;7.07;;;32.90;59.80;;;;;;5009242;28;20077;-66
2022/07/19 10:14:02;;;;;;;29.45;7.95;;;32.80;60.10;;;;;;5013428;28;20566;-66
2022/07/19 10:16:59;;;;;;;26.60;9.77;;;32.70;60.90;;;;;;5026945;28;20604;-65
2022/07/19 10:19:41;;;;;;;28.65;9.27;;;32.70;61.40;;;;;;5016030;28;20188;-70
2022/07/19 10:22:14;;;;;;;25.63;9.23;;;32.60;61.70;;;;;;5030962;28;20077;-73
2022/07/19 10:24:53;;;;;;;24.13;8.25;;;32.50;62.20;;;;;;5025998;28;20077;-72
2022/07/19 10:27:42;;;;;;;21.23;7.88;;;32.60;62.70;;;;;;5015447;28;20559;-72
2022/07/19 10:30:12;;;;;;;30.38;9.30;;;32.40;63.60;;;;;;5013666;28;20486;-64
2022/07/19 10:32:43;;;;;;;23.33;8.30;;;32.40;65.00;;;;;;5028412;28;20169;-68
2022/07/19 10:35:25;;;;;;;28.73;8.95;;;32.40;65.70;;;;;;5043781;28;20085;-66
2022/07/19 10:37:54;;;;;;;27.35;10.10;;;32.30;66.80;;;;;;5014538;28;20077;-69
2022/07/19 10:40:46;;;;;;;38.95;11.27;;;32.20;67.70;;;;;;5014669;28;20558;-66
2022/07/19 10:43:14;;;;;;;24.45;8.88;;;32.20;68.90;;;;;;5010300;28;20091;-65
2022/07/19 10:46:04;;;;;;;27.58;9.38;;;32.10;70.50;;;;;;5026451;28;20089;-66
2022/07/19 10:48:46;;;;;;;137.02;12.18;;;32.20;71.40;;;;;;5026075;28;20077;-66
2022/07/19 10:51:28;;;;;;;23.60;8.23;;;32.20;72.00;;;;;;5014581;28;20127;-66
2022/07/19 10:54:06;;;;;;;21.27;7.75;;;32.20;73.30;;;;;;5009780;28;20081;-66
2022/07/19 10:56:37;;;;;;;23.80;7.30;;;32.20;74.00;;;;;;5019631;28;20501;-66
2022/07/19 10:59:11;;;;;;;21.60;6.88;;;32.20;74.70;;;;;;5026561;28;20147;-66
2022/07/19 11:01:53;;;;;;;28.80;6.97;;;32.10;76.20;;;;;;5029285;28;20069;-68
2022/07/19 11:04:30;;;;;;;20.58;7.22;;;32.00;77.00;;;;;;5030237;28;20096;-70
2022/07/19 11:07:20;;;;;;;25.85;6.35;;;31.90;77.80;;;;;;5021637;28;20447;-70
2022/07/19 11:09:55;;;;;;;24.48;6.72;;;31.90;78.80;;;;;;5009238;28;20109;-66
2022/07/19 11:12:31;;;;;;;25.27;7.18;;;31.90;79.30;;;;;;5027558;28;20076;-65
2022/07/19 11:15:01;;;;;;;20.95;6.05;;;32.00;79.60;;;;;;5014973;28;20065;-66
2022/07/19 11:17:27;;;;;;;20.55;6.53;;;32.00;80.00;;;;;;5011151;28;20159;-66
2022/07/19 11:20:22;;;;;;;21.95;6.68;;;31.90;80.60;;;;;;5013448;28;20113;-65
2022/07/19 11:22:49;;;;;;;30.60;7.63;;;31.80;81.10;;;;;;5015986;28;20085;-66
2022/07/19 11:25:27;;;;;;;20.98;6.07;;;31.80;81.80;;;;;;5015830;28;20494;-63
2022/07/19 11:27:54;;;;;;;20.27;5.35;;;31.80;82.00;;;;;;5017586;28;20199;-68
2022/07/19 11:30:22;;;;;;;28.02;6.22;;;31.80;82.30;;;;;;5014420;28;20700;-68
2022/07/19 11:33:03;;;;;;;25.60;6.85;;;31.80;82.50;;;;;;5016522;28;20476;-66
2022/07/19 11:35:30;;;;;;;25.70;7.18;;;31.80;82.90;;;;;;5016791;28;20085;-66
2022/07/19 11:37:58;;;;;;;29.95;6.82;;;31.70;83.50;;;;;;5018822;28;20416;-66
2022/07/19 11:40:32;;;;;;;27.70;7.50;;;31.70;83.70;;;;;;5009668;28;20546;-70
2022/07/19 11:42:58;;;;;;;26.73;6.65;;;31.70;83.80;;;;;;5010565;28;20128;-66
2022/07/19 11:45:26;;;;;;;28.02;6.97;;;31.60;84.10;;;;;;5012383;28;20116;-66
2022/07/19 11:47:55;;;;;;;26.20;6.90;;;31.60;84.50;;;;;;5012501;28;20168;-66
2022/07/19 11:50:26;;;;;;;30.20;7.18;;;31.60;84.60;;;;;;5016193;28;20961;-69
2022/07/19 11:52:56;;;;;;;28.45;6.43;;;31.60;85.00;;;;;;5007883;28;20103;-68
2022/07/19 11:55:35;;;;;;;24.38;6.90;;;31.50;85.20;;;;;;5026589;28;20104;-69
2022/07/19 11:58:07;;;;;;;26.15;6.05;;;31.50;85.30;;;;;;5025733;28;20091;-66
2022/07/19 12:00:34;;;;;;;25.98;6.50;;;31.40;85.80;;;;;;5017066;28;20077;-64
2022/07/19 12:03:09;;;;;;;26.38;6.38;;;31.40;86.00;;;;;;5013084;28;20428;-66
2022/07/19 12:05:37;;;;;;;25.27;6.53;;;31.50;86.70;;;;;;5011049;28;20092;-68
2022/07/19 12:08:09;;;;;;;30.40;6.25;;;31.50;86.80;;;;;;5027452;28;20081;-68
2022/07/19 12:10:37;;;;;;;19.10;6.38;;;31.50;86.70;;;;;;5011202;28;20077;-68
2022/07/19 12:13:04;;;;;;;28.42;6.45;;;31.30;87.00;;;;;;5009166;28;20603;-65
2022/07/19 12:15:52;;;;;;;35.50;6.65;;;31.30;87.70;;;;;;5026426;28;20558;-65
2022/07/19 12:18:21;;;;;;;19.25;6.68;;;31.30;88.00;;;;;;5026397;28;20089;-66
2022/07/19 12:21:38;;;;;;;18.45;6.60;;;31.40;88.10;;;;;;5015596;28;20109;-69
2022/07/19 12:24:24;;;;;;;17.83;6.30;;;31.40;88.10;;;;;;5015172;28;20077;-66
2022/07/19 12:27:04;;;;;;;20.90;6.10;;;31.50;88.00;;;;;;5015082;28;20076;-68
2022/07/19 12:29:35;;;;;;;25.92;7.30;;;31.50;88.60;;;;;;5027730;28;20076;-67
2022/07/19 12:32:09;;;;;;;18.05;6.22;;;31.50;88.50;;;;;;5026899;28;20096;-66
2022/07/19 12:34:46;;;;;;;24.55;6.63;;;31.50;88.40;;;;;;5027115;28;20175;-69
2022/07/19 12:37:35;;;;;;;22.58;6.97;;;31.40;88.40;;;;;;5011968;28;20088;-66
2022/07/19 12:40:07;;;;;;;22.92;6.72;;;31.30;88.80;;;;;;5034750;28;20658;-69
2022/07/19 12:42:42;;;;;;;25.90;7.65;;;31.30;89.10;;;;;;5012133;28;20119;-66
2022/07/19 12:45:12;;;;;;;26.35;6.95;;;31.20;89.60;;;;;;5023902;28;20121;-66
2022/07/19 12:47:39;;;;;;;27.10;7.68;;;31.20;89.80;;;;;;5009823;28;20094;-66
2022/07/19 12:50:07;;;;;;;25.52;7.40;;;31.20;90.00;;;;;;5026189;28;20440;-66